createdAt,value
2019-04-22T00:01:34.147Z,100827.00
2019-04-22T00:04:10.016Z,100839.00
2019-04-22T00:06:59.815Z,100816.00
2019-04-22T00:09:42.169Z,100829.00
2019-04-22T00:12:16.764Z,100818.00
2019-04-22T00:14:35.390Z,100817.00
2019-04-22T00:17:18.484Z,100805.00
2019-04-22T00:19:55.591Z,100808.00
2019-04-22T00:22:22.192Z,100804.00
2019-04-22T00:24:50.745Z,100797.00
2019-04-22T00:27:28.092Z,100796.00
2019-04-22T00:32:49.279Z,100806.00
2019-04-22T00:35:19.297Z,100798.00
2019-04-22T00:37:58.397Z,100788.00
2019-04-22T00:42:58.355Z,100789.00
2019-04-22T00:45:34.442Z,100776.00
2019-04-22T00:48:14.410Z,100780.00
2019-04-22T00:50:49.596Z,100781.00
2019-04-22T00:53:16.257Z,100776.00
2019-04-22T01:01:31.752Z,100773.00
2019-04-22T01:03:59.039Z,100768.00
2019-04-22T01:09:00.240Z,100772.00
2019-04-22T01:11:29.484Z,100772.00
2019-04-22T01:14:01.268Z,100767.00
2019-04-22T01:16:48.539Z,100774.00
2019-04-22T01:19:07.650Z,100766.00
2019-04-22T01:21:40.291Z,100763.00
2019-04-22T01:24:09.178Z,100767.00
2019-04-22T01:26:38.880Z,100763.00
2019-04-22T01:29:08.344Z,100759.00
2019-04-22T01:31:34.360Z,100758.00
2019-04-22T01:34:16.029Z,100748.00
2019-04-22T01:36:52.817Z,100743.00
2019-04-22T01:39:37.806Z,100748.00
2019-04-22T01:42:06.077Z,100746.00
2019-04-22T01:44:39.723Z,100737.00
2019-04-22T01:47:13.151Z,100738.00
2019-04-22T01:49:46.100Z,100747.00
2019-04-22T01:52:15.461Z,100742.00
2019-04-22T01:54:54.602Z,100736.00
2019-04-22T01:57:18.809Z,100738.00
2019-04-22T01:59:45.811Z,100734.00
2019-04-22T02:02:30.370Z,100727.00
2019-04-22T02:04:59.947Z,100720.00
2019-04-22T02:07:34.489Z,100717.00
2019-04-22T02:10:02.247Z,100721.00
2019-04-22T02:15:07.446Z,100714.00
2019-04-22T02:20:12.349Z,100710.00
2019-04-22T02:28:47.995Z,100705.00
2019-04-22T02:31:25.985Z,100716.00
2019-04-22T02:49:11.137Z,100696.00
2019-04-22T02:51:32.851Z,100691.00
2019-04-22T02:56:43.844Z,100683.00
2019-04-22T02:59:14.111Z,100684.00
2019-04-22T03:06:49.553Z,100673.00
2019-04-22T03:09:28.632Z,100672.00
2019-04-22T03:14:22.918Z,100672.00
2019-04-22T03:16:50.513Z,100659.00
2019-04-22T03:22:00.662Z,100659.00
2019-04-22T03:27:19.668Z,100651.00
2019-04-22T03:40:25.193Z,100657.00
2019-04-22T03:43:02.520Z,100654.00
2019-04-22T03:50:29.014Z,100646.00
2019-04-22T03:53:11.151Z,100649.00
2019-04-22T03:55:41.294Z,100645.00
2019-04-22T03:58:11.049Z,100647.00
2019-04-22T04:00:50.121Z,100647.00
2019-04-22T04:05:57.640Z,100654.00
2019-04-22T04:08:26.743Z,100653.00
2019-04-22T04:10:55.701Z,100653.00
2019-04-22T04:15:57.591Z,100649.00
2019-04-22T04:18:39.304Z,100645.00
2019-04-22T04:21:22.794Z,100649.00
2019-04-22T04:31:25.018Z,100651.00
2019-04-22T04:33:50.854Z,100640.00
2019-04-22T04:36:54.938Z,100647.00
2019-04-22T04:38:58.423Z,100634.00
2019-04-22T04:44:01.473Z,100648.00
2019-04-22T04:49:13.063Z,100639.00
2019-04-22T04:51:47.220Z,100639.00
2019-04-22T05:01:45.139Z,100643.00
2019-04-22T05:04:40.872Z,100651.00
2019-04-22T05:06:59.869Z,100640.00
2019-04-22T05:12:03.465Z,100638.00
2019-04-22T05:16:54.895Z,100641.00
2019-04-22T05:19:26.162Z,100640.00
2019-04-22T05:22:00.337Z,100643.00
2019-04-22T05:27:13.412Z,100636.00
2019-04-22T05:29:58.254Z,100639.00
2019-04-22T05:32:09.166Z,100638.00
2019-04-22T05:34:40.175Z,100632.00
2019-04-22T05:37:16.005Z,100639.00
2019-04-22T05:39:52.694Z,100631.00
2019-04-22T05:42:18.052Z,100632.00
2019-04-22T05:44:49.694Z,100632.00
2019-04-22T05:47:19.455Z,100628.00
2019-04-22T05:49:59.634Z,100625.00
2019-04-22T05:52:54.399Z,100623.00
2019-04-22T05:55:33.302Z,100637.00
2019-04-22T05:57:57.828Z,100628.00
2019-04-22T06:01:00.039Z,100640.00
2019-04-22T06:03:02.617Z,100625.00
2019-04-22T06:05:35.975Z,100615.00
2019-04-22T06:08:13.332Z,100629.00
2019-04-22T06:10:50.390Z,100620.00
2019-04-22T06:13:09.968Z,100623.00
2019-04-22T06:15:51.280Z,100619.00
2019-04-22T06:23:36.027Z,100609.00
2019-04-22T06:26:10.025Z,100607.00
2019-04-22T06:28:40.638Z,100606.00
2019-04-22T06:31:10.971Z,100614.00
2019-04-22T06:33:40.558Z,100610.00
2019-04-22T06:36:15.739Z,100611.00
2019-04-22T06:38:59.061Z,100605.00
2019-04-22T06:41:25.298Z,100604.00
2019-04-22T06:43:56.171Z,100602.00
2019-04-22T06:46:22.448Z,100605.00
2019-04-22T06:48:56.300Z,100597.00
2019-04-22T06:51:27.013Z,100596.00
2019-04-22T06:54:01.818Z,100597.00
2019-04-22T06:56:27.816Z,100597.00
2019-04-22T06:59:06.885Z,100597.00
2019-04-22T07:01:42.717Z,100589.00
2019-04-22T07:04:09.241Z,100586.00
2019-04-22T07:11:43.231Z,100598.00
2019-04-22T07:14:28.586Z,100601.00
2019-04-22T07:16:51.325Z,100599.00
2019-04-22T07:21:57.714Z,100591.00
2019-04-22T07:27:00.511Z,100583.00
2019-04-22T07:29:32.504Z,100587.00
2019-04-22T07:37:22.791Z,100588.00
2019-04-22T07:39:41.727Z,100586.00
2019-04-22T07:42:19.126Z,100586.00
2019-04-22T07:49:50.832Z,100566.00
2019-04-22T07:52:24.476Z,100559.00
2019-04-22T07:54:56.830Z,100561.00
2019-04-22T07:57:32.457Z,100561.00
2019-04-22T08:00:04.111Z,100556.00
2019-04-22T08:02:39.149Z,100561.00
2019-04-22T08:05:22.437Z,100562.00
2019-04-22T08:07:35.540Z,100552.00
2019-04-22T08:10:17.271Z,100559.00
2019-04-22T08:12:47.341Z,100563.00
2019-04-22T08:15:13.066Z,100560.00
2019-04-22T08:17:55.994Z,100565.00
2019-04-22T08:23:09.159Z,100560.00
2019-04-22T08:25:38.893Z,100558.00
2019-04-22T08:28:10.660Z,100559.00
2019-04-22T08:30:51.945Z,100551.00
2019-04-22T08:33:24.475Z,100554.00
2019-04-22T08:36:10.784Z,100551.00
2019-04-22T08:38:25.588Z,100554.00
2019-04-22T08:44:02.527Z,100537.00
2019-04-22T08:46:42.026Z,100544.00
2019-04-22T08:48:59.073Z,100544.00
2019-04-22T08:51:38.403Z,100547.00
2019-04-22T08:54:09.711Z,100536.00
2019-04-22T08:56:37.713Z,100542.00
2019-04-22T08:59:12.177Z,100545.00
2019-04-22T09:01:37.664Z,100539.00
2019-04-22T09:04:16.786Z,100539.00
2019-04-22T09:07:02.451Z,100533.00
2019-04-22T09:09:21.304Z,100528.00
2019-04-22T09:11:57.746Z,100531.00
2019-04-22T09:14:26.073Z,100528.00
2019-04-22T09:17:02.005Z,100523.00
2019-04-22T09:19:30.906Z,100521.00
2019-04-22T09:22:00.046Z,100515.00
2019-04-22T09:24:36.136Z,100528.00
2019-04-22T09:27:11.569Z,100509.00
2019-04-22T09:29:40.038Z,100512.00
2019-04-22T09:32:11.634Z,100509.00
2019-04-22T09:34:47.047Z,100508.00
2019-04-22T09:37:29.002Z,100506.00
2019-04-22T09:40:02.988Z,100502.00
2019-04-22T09:45:00.280Z,100493.00
2019-04-22T09:47:33.749Z,100493.00
2019-04-22T09:50:03.752Z,100502.00
2019-04-22T09:52:35.983Z,100487.00
2019-04-22T09:57:38.411Z,100483.00
2019-04-22T10:02:51.768Z,100479.00
2019-04-22T10:05:23.821Z,100476.00
2019-04-22T10:07:54.444Z,100473.00
2019-04-22T10:10:20.503Z,100468.00
2019-04-22T10:12:55.734Z,100477.00
2019-04-22T10:15:25.232Z,100467.00
2019-04-22T10:17:57.954Z,100468.00
2019-04-22T10:20:31.170Z,100464.00
2019-04-22T10:23:05.884Z,100467.00
2019-04-22T10:25:35.042Z,100457.00
2019-04-22T10:28:15.658Z,100449.00
2019-04-22T10:30:47.336Z,100436.00
2019-04-22T10:33:12.243Z,100447.00
2019-04-22T10:35:23.611Z,100439.00
2019-04-22T10:37:52.519Z,100433.00
2019-04-22T10:40:42.854Z,100434.00
2019-04-22T10:43:13.310Z,100433.00
2019-04-22T10:45:44.097Z,100432.00
2019-04-22T10:48:14.673Z,100432.00
2019-04-22T10:50:48.767Z,100413.00
2019-04-22T10:53:21.688Z,100419.00
2019-04-22T10:55:54.234Z,100418.00
2019-04-22T10:58:24.956Z,100413.00
2019-04-22T11:00:56.286Z,100414.00
2019-04-22T11:03:28.563Z,100396.00
2019-04-22T11:05:59.471Z,100398.00
2019-04-22T11:08:40.295Z,100393.00
2019-04-22T11:11:16.874Z,100385.00
2019-04-22T11:13:35.871Z,100389.00
2019-04-22T11:16:07.721Z,100392.00
2019-04-22T11:18:38.123Z,100383.00
2019-04-22T11:21:09.683Z,100372.00
2019-04-22T11:23:40.773Z,100384.00
2019-04-22T11:26:12.109Z,100383.00
2019-04-22T11:28:43.385Z,100374.00
2019-04-22T11:31:14.769Z,100371.00
2019-04-22T11:33:45.325Z,100362.00
2019-04-22T11:36:15.997Z,100362.00
2019-04-22T11:38:54.051Z,100364.00
2019-04-22T11:41:19.516Z,100362.00
2019-04-22T11:43:51.287Z,100366.00
2019-04-22T11:46:23.159Z,100349.00
2019-04-22T11:48:54.135Z,100355.00
2019-04-22T11:51:24.863Z,100355.00
2019-04-22T11:53:56.570Z,100354.00
2019-04-22T11:56:27.457Z,100347.00
2019-04-22T11:58:57.782Z,100350.00
2019-04-22T12:01:28.833Z,100349.00
2019-04-22T12:03:59.936Z,100348.00
2019-04-22T12:06:31.799Z,100344.00
2019-04-22T12:09:03.830Z,100341.00
2019-04-22T12:11:34.539Z,100339.00
2019-04-22T12:14:06.271Z,100345.00
2019-04-22T12:16:37.192Z,100339.00
2019-04-22T12:19:09.096Z,100326.00
2019-04-22T12:21:39.703Z,100321.00
2019-04-22T12:24:10.943Z,100317.00
2019-04-22T12:26:42.365Z,100311.00
2019-04-22T12:29:13.212Z,100307.00
2019-04-22T12:31:45.183Z,100309.00
2019-04-22T12:34:15.696Z,100309.00
2019-04-22T12:36:46.833Z,100309.00
2019-04-22T12:39:17.868Z,100286.00
2019-04-22T12:41:48.326Z,100291.00
2019-04-22T12:44:20.120Z,100279.00
2019-04-22T12:46:52.250Z,100280.00
2019-04-22T12:49:22.961Z,100287.00
2019-04-22T12:51:54.784Z,100281.00
2019-04-22T12:54:26.834Z,100261.00
2019-04-22T12:56:57.777Z,100269.00
2019-04-22T12:59:29.785Z,100268.00
2019-04-22T13:02:00.718Z,100268.00
2019-04-22T13:04:32.268Z,100273.00
2019-04-22T13:07:03.898Z,100255.00
2019-04-22T13:09:34.300Z,100254.00
2019-04-22T13:12:04.941Z,100246.00
2019-04-22T13:14:36.581Z,100243.00
2019-04-22T13:17:08.132Z,100239.00
2019-04-22T13:19:40.300Z,100235.00
2019-04-22T13:22:10.825Z,100239.00
2019-04-22T13:24:41.733Z,100227.00
2019-04-22T13:27:12.970Z,100223.00
2019-04-22T13:29:43.533Z,100219.00
2019-04-22T13:32:14.169Z,100229.00
2019-04-22T13:34:49.446Z,100227.00
2019-04-22T13:37:17.033Z,100222.00
2019-04-22T13:39:48.998Z,100211.00
2019-04-22T13:42:25.055Z,100210.00
2019-04-22T13:44:55.929Z,100208.00
2019-04-22T13:47:42.392Z,100200.00
2019-04-22T13:50:34.514Z,100211.00
2019-04-22T13:55:36.637Z,100199.00
2019-04-22T13:57:53.412Z,100191.00
2019-04-22T14:00:12.124Z,100190.00
2019-04-22T14:03:08.741Z,100192.00
2019-04-22T14:05:40.624Z,100190.00
2019-04-22T14:08:24.984Z,100177.00
2019-04-22T14:10:57.844Z,100180.00
2019-04-22T14:13:28.069Z,100186.00
2019-04-22T14:15:59.407Z,100183.00
2019-04-22T14:18:30.779Z,100179.00
2019-04-22T14:21:02.866Z,100177.00
2019-04-22T14:23:34.852Z,100179.00
2019-04-22T14:26:42.813Z,100184.00
2019-04-22T14:28:49.942Z,100178.00
2019-04-22T14:31:20.487Z,100177.00
2019-04-22T14:36:23.461Z,100169.00
2019-04-22T14:38:54.388Z,100161.00
2019-04-22T14:41:51.476Z,100171.00
2019-04-22T14:44:04.583Z,100165.00
2019-04-22T14:44:56.423Z,100163.00
2019-04-22T14:47:04.052Z,100158.00
2019-04-22T14:49:31.451Z,100159.00
2019-04-22T14:52:00.419Z,100149.00
2019-04-22T14:54:24.220Z,100148.00
2019-04-22T14:56:40.455Z,100147.00
2019-04-22T14:59:11.338Z,100155.00
2019-04-22T15:01:41.759Z,100138.00
2019-04-22T15:04:13.310Z,100139.00
2019-04-22T15:06:47.076Z,100135.00
2019-04-22T15:09:17.443Z,100129.00
2019-04-22T15:12:00.839Z,100129.00
2019-04-22T15:14:21.453Z,100123.00
2019-04-22T15:17:14.851Z,100117.00
2019-04-22T15:19:58.067Z,100112.00
2019-04-22T15:22:28.562Z,100101.00
2019-04-22T15:24:58.907Z,100122.00
2019-04-22T15:27:31.052Z,100122.00
2019-04-22T15:30:03.402Z,100117.00
2019-04-22T15:32:39.069Z,100113.00
2019-04-22T15:35:11.470Z,100116.00
2019-04-22T15:37:43.333Z,100101.00
2019-04-22T15:40:14.063Z,100121.00
2019-04-22T15:42:45.270Z,100117.00
2019-04-22T15:45:18.792Z,100107.00
2019-04-22T15:47:52.360Z,100107.00
2019-04-22T15:50:24.545Z,100102.00
2019-04-22T15:52:57.505Z,100093.00
2019-04-22T15:55:28.949Z,100093.00
2019-04-22T15:57:59.613Z,100097.00
2019-04-22T16:00:42.260Z,100110.00
2019-04-22T16:03:06.044Z,100101.00
2019-04-22T16:05:36.246Z,100091.00
2019-04-22T16:08:06.878Z,100092.00
2019-04-22T16:10:37.918Z,100097.00
2019-04-22T16:13:16.126Z,100097.00
2019-04-22T16:15:42.529Z,100099.00
2019-04-22T16:18:15.146Z,100079.00
2019-04-22T16:20:46.182Z,100086.00
2019-04-22T16:23:34.110Z,100091.00
2019-04-22T16:26:26.358Z,100086.00
2019-04-22T16:28:59.222Z,100104.00
2019-04-22T16:31:29.413Z,100093.00
2019-04-22T16:34:00.504Z,100096.00
2019-04-22T16:36:31.390Z,100088.00
2019-04-22T16:39:02.734Z,100089.00
2019-04-22T16:41:33.181Z,100078.00
2019-04-22T16:44:04.683Z,100085.00
2019-04-22T16:46:34.992Z,100076.00
2019-04-22T16:49:09.692Z,100089.00
2019-04-22T16:51:40.329Z,100083.00
2019-04-22T16:54:11.779Z,100073.00
2019-04-22T16:56:43.904Z,100079.00
2019-04-22T16:59:14.958Z,100068.00
2019-04-22T17:02:04.463Z,100080.00
2019-04-22T17:05:09.489Z,100079.00
2019-04-22T17:07:40.273Z,100065.00
2019-04-22T17:10:11.211Z,100082.00
2019-04-22T17:12:53.213Z,100073.00
2019-04-22T17:15:16.301Z,100069.00
2019-04-22T17:17:47.353Z,100081.00
2019-04-22T17:20:18.502Z,100081.00
2019-04-22T17:22:49.503Z,100070.00
2019-04-22T17:25:20.539Z,100079.00
2019-04-22T17:27:51.940Z,100057.00
2019-04-22T17:30:24.380Z,100075.00
2019-04-22T17:32:56.627Z,100077.00
2019-04-22T17:35:34.030Z,100079.00
2019-04-22T17:38:12.683Z,100060.00
2019-04-22T17:40:51.028Z,100077.00
2019-04-22T17:43:40.637Z,100074.00
2019-04-22T17:46:15.057Z,100080.00
2019-04-22T17:49:02.776Z,100068.00
2019-04-22T17:51:31.441Z,100085.00
2019-04-22T17:54:21.433Z,100080.00
2019-04-22T17:56:37.810Z,100079.00
2019-04-22T17:59:15.597Z,100068.00
2019-04-22T18:01:43.739Z,100068.00
2019-04-22T18:03:59.518Z,100081.00
2019-04-22T18:06:55.382Z,100085.00
2019-04-22T18:09:19.501Z,100091.00
2019-04-22T18:12:00.980Z,100092.00
2019-04-22T18:17:00.157Z,100086.00
2019-04-22T18:19:26.203Z,100084.00
2019-04-22T18:21:57.186Z,100092.00
2019-04-22T18:24:21.987Z,100090.00
2019-04-22T18:27:18.995Z,100097.00
2019-04-22T18:29:37.446Z,100102.00
2019-04-22T18:32:08.808Z,100094.00
2019-04-22T18:34:39.888Z,100087.00
2019-04-22T18:37:18.453Z,100086.00
2019-04-22T18:39:52.773Z,100095.00
2019-04-22T18:42:21.994Z,100093.00
2019-04-22T18:45:09.899Z,100089.00
2019-04-22T18:47:25.322Z,100089.00
2019-04-22T18:50:00.269Z,100095.00
2019-04-22T18:53:10.994Z,100099.00
2019-04-22T18:55:33.767Z,100097.00
2019-04-22T18:58:08.488Z,100101.00
2019-04-22T19:00:34.219Z,100109.00
2019-04-22T19:03:12.946Z,100107.00
2019-04-22T19:06:09.530Z,100101.00
2019-04-22T19:08:31.503Z,100099.00
2019-04-22T19:11:14.008Z,100101.00
2019-04-22T19:18:50.509Z,100102.00
2019-04-22T19:21:16.176Z,100111.00
2019-04-22T19:23:52.004Z,100117.00
2019-04-22T19:26:33.899Z,100111.00
2019-04-22T19:28:54.092Z,100117.00
2019-04-22T19:31:29.840Z,100113.00
2019-04-22T19:34:01.201Z,100124.00
2019-04-22T19:36:36.288Z,100121.00
2019-04-22T19:38:59.011Z,100111.00
2019-04-22T19:41:59.195Z,100116.00
2019-04-22T19:44:10.547Z,100118.00
2019-04-22T19:46:42.201Z,100120.00
2019-04-22T19:49:23.782Z,100123.00
2019-04-22T19:51:56.071Z,100122.00
2019-04-22T19:54:17.446Z,100119.00
2019-04-22T19:56:40.433Z,100127.00
2019-04-22T19:59:23.541Z,100108.00
2019-04-22T20:02:15.998Z,100109.00
2019-04-22T20:05:11.138Z,100113.00
2019-04-22T20:07:38.202Z,100104.00
2019-04-22T20:10:19.042Z,100102.00
2019-04-22T20:12:42.900Z,100107.00
2019-04-22T20:15:20.013Z,100106.00
2019-04-22T20:18:15.625Z,100102.00
2019-04-22T20:20:27.236Z,100103.00
2019-04-22T20:22:52.319Z,100104.00
2019-04-22T20:25:31.372Z,100098.00
2019-04-22T20:28:07.503Z,100105.00
2019-04-22T20:30:39.902Z,100110.00
2019-04-22T20:33:10.738Z,100112.00
2019-04-22T20:35:43.989Z,100101.00
2019-04-22T20:38:13.562Z,100105.00
2019-04-22T20:40:42.518Z,100110.00
2019-04-22T20:43:29.266Z,100112.00
2019-04-22T20:45:51.161Z,100113.00
2019-04-22T20:48:15.850Z,100111.00
2019-04-22T20:50:59.587Z,100106.00
2019-04-22T20:53:29.891Z,100096.00
2019-04-22T20:56:02.645Z,100097.00
2019-04-22T20:58:34.280Z,100105.00
2019-04-22T21:00:55.592Z,100104.00
2019-04-22T21:03:28.458Z,100093.00
2019-04-22T21:06:06.888Z,100112.00
2019-04-22T21:08:42.159Z,100107.00
2019-04-22T21:11:13.714Z,100104.00
2019-04-22T21:13:41.114Z,100102.00
2019-04-22T21:16:22.374Z,100110.00
2019-04-22T21:18:46.117Z,100103.00
2019-04-22T21:21:32.186Z,100111.00
2019-04-22T21:23:53.941Z,100108.00
2019-04-22T21:26:29.373Z,100105.00
2019-04-22T21:29:04.343Z,100105.00
2019-04-22T21:31:43.806Z,100098.00
2019-04-22T21:34:05.298Z,100116.00
2019-04-22T21:36:42.984Z,100105.00
2019-04-22T21:39:12.584Z,100098.00
2019-04-22T21:41:47.304Z,100104.00
2019-04-22T21:44:21.380Z,100104.00
2019-04-22T21:46:59.714Z,100090.00
2019-04-22T21:49:28.007Z,100097.00
2019-04-22T21:52:13.878Z,100076.00
2019-04-22T21:54:28.281Z,100088.00
2019-04-22T21:57:18.868Z,100083.00
2019-04-22T21:59:40.220Z,100080.00
2019-04-22T22:02:25.181Z,100081.00
2019-04-22T22:04:47.297Z,100082.00
2019-04-22T22:07:09.816Z,100078.00
2019-04-22T22:09:53.761Z,100076.00
2019-04-22T22:12:24.228Z,100067.00
2019-04-22T22:15:04.104Z,100067.00
2019-04-22T22:17:31.110Z,100057.00
2019-04-22T22:19:57.751Z,100055.00
2019-04-22T22:22:50.134Z,100046.00
2019-04-22T22:25:07.792Z,100045.00
2019-04-22T22:27:41.093Z,100044.00
2019-04-22T22:32:49.771Z,100035.00
2019-04-22T22:35:20.492Z,100041.00
2019-04-22T22:37:50.684Z,100046.00
2019-04-22T22:40:10.636Z,100025.00
2019-04-22T22:42:44.460Z,100026.00
2019-04-22T22:45:30.132Z,100028.00
2019-04-22T22:48:13.393Z,100027.00
2019-04-22T22:50:44.615Z,100015.00
2019-04-22T22:53:22.373Z,100005.00
2019-04-22T22:55:46.381Z,100003.00
2019-04-22T22:58:23.821Z,100016.00
2019-04-22T23:00:44.067Z,100003.00
2019-04-22T23:03:40.533Z,99999.00
2019-04-22T23:06:03.531Z,99999.00
2019-04-22T23:08:34.363Z,100002.00
2019-04-22T23:11:05.362Z,99993.00
2019-04-22T23:13:40.333Z,99994.00
2019-04-22T23:16:00.807Z,99989.00
2019-04-22T23:18:17.725Z,99989.00
2019-04-22T23:20:51.495Z,99985.00
2019-04-22T23:23:37.897Z,99975.00
2019-04-22T23:26:29.824Z,99974.00
2019-04-22T23:29:05.043Z,99964.00
2019-04-22T23:31:39.963Z,99967.00
2019-04-22T23:34:19.855Z,99969.00
2019-04-22T23:37:08.438Z,99955.00
2019-04-22T23:39:53.450Z,99957.00
2019-04-22T23:42:21.889Z,99954.00
2019-04-22T23:44:56.268Z,99958.00
2019-04-22T23:47:34.983Z,99949.00
2019-04-22T23:50:23.744Z,99947.00
2019-04-22T23:52:53.056Z,99942.00
2019-04-22T23:55:26.043Z,99943.00
2019-04-22T23:58:03.512Z,99943.00
